Time;durP1;ratioP1;P1;durP2;ratioP2;P2;SDS_P1;SDS_P2;PMS_P1;PMS_P2;Temp;Humidity;BMP_temperature;BMP_pressure;BME280_temperature;BME280_humidity;BME280_pressure;Samples;Min_cycle;Max_cycle;Signal;HPM_P1;HPM_P2
2023/05/03 00:02:15;;;;;;;4.18;1.88;;;4.30;99.90;;;;;;5007984;28;20486;-67
2023/05/03 00:04:41;;;;;;;3.08;1.55;;;4.20;99.90;;;;;;5001416;28;20512;-66
2023/05/03 00:07:07;;;;;;;4.80;2.20;;;4.30;99.90;;;;;;5007214;28;20080;-67
2023/05/03 00:09:34;;;;;;;5.65;2.28;;;4.20;99.90;;;;;;5023402;28;20099;-67
2023/05/03 00:12:00;;;;;;;6.47;1.92;;;4.10;99.90;;;;;;4983291;28;20049;-67
2023/05/03 00:14:26;;;;;;;5.53;2.08;;;4.10;99.90;;;;;;5023352;28;20532;-67
2023/05/03 00:16:52;;;;;;;3.67;1.70;;;4.10;99.90;;;;;;5024353;28;20049;-67
2023/05/03 00:19:18;;;;;;;4.75;2.17;;;4.00;99.90;;;;;;5010091;28;20048;-67
2023/05/03 00:21:45;;;;;;;5.00;2.00;;;4.00;99.90;;;;;;5007906;28;20077;-67
2023/05/03 00:24:10;;;;;;;6.15;2.33;;;4.00;99.90;;;;;;5008003;28;20548;-67
2023/05/03 00:26:36;;;;;;;6.13;2.60;;;3.90;99.90;;;;;;5023467;28;20038;-67
2023/05/03 00:29:02;;;;;;;5.15;2.20;;;3.90;99.90;;;;;;5007628;28;20069;-66
2023/05/03 00:31:28;;;;;;;7.38;2.03;;;3.80;99.90;;;;;;5006918;28;20403;-67
2023/05/03 00:33:53;;;;;;;4.97;2.25;;;3.90;99.90;;;;;;5022062;28;20038;-67
2023/05/03 00:36:19;;;;;;;7.18;2.20;;;3.80;99.90;;;;;;5008595;28;20161;-66
2023/05/03 00:38:45;;;;;;;6.03;2.60;;;3.80;99.90;;;;;;5024207;28;20060;-67
2023/05/03 00:41:12;;;;;;;5.05;2.15;;;3.80;99.90;;;;;;5009494;28;20037;-66
2023/05/03 00:43:38;;;;;;;6.90;2.45;;;3.80;99.90;;;;;;5007943;28;20077;-67
2023/05/03 00:46:06;;;;;;;5.50;2.88;;;3.80;99.90;;;;;;5006277;28;20071;-67
2023/05/03 00:48:33;;;;;;;4.78;2.38;;;3.80;99.90;;;;;;5007581;28;20052;-67
2023/05/03 00:51:01;;;;;;;4.18;2.30;;;3.80;99.90;;;;;;4991088;28;20038;-67
2023/05/03 00:53:27;;;;;;;6.38;2.30;;;3.80;99.90;;;;;;5006327;28;20033;-67
2023/05/03 00:55:54;;;;;;;4.97;2.63;;;3.80;99.90;;;;;;5008103;28;20048;-67
2023/05/03 00:58:20;;;;;;;4.22;2.33;;;3.80;99.90;;;;;;5008818;28;20037;-67
2023/05/03 01:00:49;;;;;;;5.68;2.22;;;3.90;99.90;;;;;;5008791;28;20105;-70
2023/05/03 01:03:16;;;;;;;5.53;2.47;;;3.90;99.90;;;;;;5007293;28;20099;-69
2023/05/03 01:06:05;;;;;;;6.28;2.78;;;3.90;99.90;;;;;;5010546;28;20037;-69
2023/05/03 01:08:40;;;;;;;7.18;2.42;;;4.00;99.90;;;;;;5010892;28;20099;-69
2023/05/03 01:11:31;;;;;;;6.32;2.75;;;4.00;99.90;;;;;;5027437;28;20124;-69
2023/05/03 01:14:15;;;;;;;5.13;2.50;;;4.10;99.90;;;;;;5008300;28;20205;-69
2023/05/03 01:16:48;;;;;;;6.65;2.35;;;4.10;99.90;;;;;;5009602;28;20088;-69
2023/05/03 01:19:43;;;;;;;4.47;2.38;;;4.20;99.90;;;;;;5012081;28;20390;-69
2023/05/03 01:22:32;;;;;;;6.75;2.78;;;4.20;99.90;;;;;;5010658;28;20045;-69
2023/05/03 01:25:09;;;;;;;7.75;2.90;;;4.30;99.90;;;;;;5009859;28;20058;-69
2023/05/03 01:27:35;;;;;;;3.83;2.50;;;4.30;99.90;;;;;;5012545;28;20517;-69
2023/05/03 01:30:11;;;;;;;9.18;2.53;;;4.40;99.90;;;;;;5008262;28;20045;-69
2023/05/03 01:32:43;;;;;;;3.80;2.30;;;4.40;99.90;;;;;;5025321;28;20046;-69
2023/05/03 01:35:19;;;;;;;7.43;2.50;;;4.50;99.90;;;;;;5009979;28;20053;-69
2023/05/03 01:37:46;;;;;;;4.93;2.53;;;4.50;99.90;;;;;;5010625;28;20042;-69
2023/05/03 01:40:15;;;;;;;5.35;2.50;;;4.60;99.90;;;;;;5012553;28;20065;-69
2023/05/03 01:42:42;;;;;;;4.82;3.35;;;4.70;99.90;;;;;;5010126;28;20371;-69
2023/05/03 01:45:09;;;;;;;4.35;2.35;;;4.70;99.90;;;;;;5019660;28;20079;-69
2023/05/03 01:47:34;;;;;;;7.13;2.97;;;4.70;99.90;;;;;;5027873;28;20045;-69
2023/05/03 01:50:00;;;;;;;7.15;2.60;;;4.80;99.90;;;;;;5027611;28;20135;-69
2023/05/03 01:52:26;;;;;;;7.03;2.58;;;4.80;99.90;;;;;;5027504;28;20046;-69
2023/05/03 01:54:52;;;;;;;8.65;2.80;;;4.90;99.90;;;;;;5012637;28;20547;-69
2023/05/03 01:57:17;;;;;;;8.68;2.63;;;4.90;99.90;;;;;;5009482;28;20306;-70
2023/05/03 01:59:43;;;;;;;5.82;2.65;;;5.00;99.90;;;;;;5012059;28;20038;-69
2023/05/03 02:02:09;;;;;;;5.13;2.25;;;5.00;99.90;;;;;;5024294;28;20462;-69
2023/05/03 02:04:34;;;;;;;4.45;2.72;;;5.00;99.90;;;;;;5026802;28;20042;-69
2023/05/03 02:07:00;;;;;;;5.10;2.58;;;5.00;99.90;;;;;;5026709;28;20201;-70
2023/05/03 02:09:26;;;;;;;5.47;2.35;;;5.00;99.90;;;;;;5028088;28;20077;-70
2023/05/03 02:11:52;;;;;;;4.18;2.80;;;5.10;99.90;;;;;;5013215;28;20076;-70
2023/05/03 02:14:17;;;;;;;4.60;2.53;;;5.10;99.90;;;;;;5009785;28;20030;-70
2023/05/03 02:16:43;;;;;;;4.20;2.60;;;5.00;99.90;;;;;;5018614;28;20049;-70
2023/05/03 02:19:09;;;;;;;3.58;2.40;;;5.00;99.90;;;;;;5011570;28;20370;-70
2023/05/03 02:21:36;;;;;;;4.00;2.53;;;4.90;99.90;;;;;;5027277;28;20548;-70
2023/05/03 02:24:02;;;;;;;7.25;3.00;;;4.90;99.90;;;;;;5011511;28;20563;-70
2023/05/03 02:26:28;;;;;;;4.90;2.78;;;4.90;99.90;;;;;;5027908;28;20050;-70
2023/05/03 02:28:57;;;;;;;3.65;2.53;;;4.80;99.90;;;;;;5026822;28;20057;-70
2023/05/03 02:31:23;;;;;;;5.00;2.88;;;4.80;99.90;;;;;;5025872;28;20046;-70
2023/05/03 02:33:49;;;;;;;5.28;2.75;;;4.70;99.90;;;;;;5026907;28;20486;-70
2023/05/03 02:36:15;;;;;;;5.78;2.72;;;4.60;99.90;;;;;;5009558;28;20057;-69
2023/05/03 02:38:40;;;;;;;7.60;2.80;;;4.60;99.90;;;;;;5010972;28;20057;-69
2023/05/03 02:41:06;;;;;;;4.93;2.83;;;4.50;99.90;;;;;;4998972;28;20425;-70
2023/05/03 02:43:32;;;;;;;6.20;2.90;;;4.40;99.90;;;;;;5026773;28;20414;-69
2023/05/03 02:45:57;;;;;;;6.57;2.67;;;4.40;99.90;;;;;;5026117;28;20041;-69
2023/05/03 02:48:23;;;;;;;7.05;2.88;;;4.30;99.90;;;;;;5011877;28;20474;-69
2023/05/03 02:50:49;;;;;;;7.95;3.00;;;4.20;99.90;;;;;;5012330;28;20056;-69
2023/05/03 02:53:15;;;;;;;6.93;2.72;;;4.20;99.90;;;;;;5012123;28;20045;-70
2023/05/03 02:55:41;;;;;;;4.93;2.72;;;4.20;99.90;;;;;;5021158;28;20056;-69
2023/05/03 02:58:06;;;;;;;6.00;2.60;;;4.20;99.90;;;;;;5009884;28;20109;-70
2023/05/03 03:00:32;;;;;;;6.85;2.97;;;4.10;99.90;;;;;;5010499;28;20037;-70
2023/05/03 03:02:58;;;;;;;6.20;2.95;;;4.10;99.90;;;;;;5008891;28;20140;-70
2023/05/03 03:05:24;;;;;;;6.07;2.92;;;4.00;99.90;;;;;;5010344;28;20127;-70
2023/05/03 03:07:50;;;;;;;3.80;2.85;;;3.90;99.90;;;;;;5009115;28;20137;-69
2023/05/03 03:10:15;;;;;;;3.47;2.55;;;4.00;99.90;;;;;;5021035;28;20120;-69
2023/05/03 03:12:41;;;;;;;4.05;2.97;;;3.90;99.90;;;;;;5026483;28;20038;-70
2023/05/03 03:15:07;;;;;;;6.43;3.20;;;3.80;99.90;;;;;;5009178;28;20033;-69
2023/05/03 03:17:37;;;;;;;5.63;2.97;;;3.80;99.90;;;;;;5018429;28;20409;-69
2023/05/03 03:20:05;;;;;;;9.82;3.25;;;3.80;99.90;;;;;;5023692;28;20089;-69
2023/05/03 03:22:31;;;;;;;4.68;3.33;;;3.70;99.90;;;;;;5027126;28;20033;-69
2023/05/03 03:24:57;;;;;;;6.20;3.60;;;3.70;99.90;;;;;;5011211;28;20060;-70
2023/05/03 03:27:22;;;;;;;5.13;3.15;;;3.70;99.90;;;;;;5010406;28;20489;-70
2023/05/03 03:29:48;;;;;;;4.43;3.17;;;3.70;99.90;;;;;;5006772;28;20065;-70
2023/05/03 03:32:14;;;;;;;4.13;3.22;;;3.70;99.90;;;;;;5023164;28;20053;-69
2023/05/03 03:34:40;;;;;;;5.90;3.20;;;3.60;99.90;;;;;;5024697;28;20088;-70
2023/05/03 03:37:06;;;;;;;4.82;3.13;;;3.60;99.90;;;;;;5010569;28;20037;-69
2023/05/03 03:39:31;;;;;;;5.65;3.25;;;3.50;99.90;;;;;;5025568;28;20128;-70
2023/05/03 03:41:57;;;;;;;4.95;3.42;;;3.50;99.90;;;;;;5026106;28;20372;-70
2023/05/03 03:44:23;;;;;;;4.85;3.28;;;3.50;99.90;;;;;;5010351;28;20041;-70
2023/05/03 03:46:49;;;;;;;4.85;3.30;;;3.50;99.90;;;;;;5009245;28;20112;-70
2023/05/03 03:49:14;;;;;;;8.10;3.70;;;3.30;99.90;;;;;;4982159;28;20042;-69
2023/05/03 03:51:40;;;;;;;7.20;3.78;;;3.40;99.90;;;;;;5008964;28;20056;-70
2023/05/03 03:54:06;;;;;;;8.35;3.85;;;3.40;99.90;;;;;;5026180;28;20042;-69
2023/05/03 03:56:31;;;;;;;5.10;3.30;;;3.40;99.90;;;;;;5009280;28;20208;-69
2023/05/03 03:58:57;;;;;;;8.30;3.33;;;3.40;99.90;;;;;;5011306;28;20038;-69
2023/05/03 04:01:23;;;;;;;8.40;3.85;;;3.40;99.90;;;;;;5009591;28;20443;-70
2023/05/03 04:03:48;;;;;;;5.32;3.30;;;3.40;99.90;;;;;;4992415;28;20053;-69
2023/05/03 04:06:14;;;;;;;5.03;3.25;;;3.30;99.90;;;;;;5022144;28;20061;-70
2023/05/03 04:08:40;;;;;;;7.07;3.40;;;3.30;99.90;;;;;;5025337;28;20432;-69
2023/05/03 04:11:12;;;;;;;7.57;3.42;;;3.20;99.90;;;;;;5010974;28;20440;-69
2023/05/03 04:13:38;;;;;;;4.45;3.17;;;3.20;99.90;;;;;;5010261;28;20049;-70
2023/05/03 04:16:08;;;;;;;6.72;3.22;;;3.20;99.90;;;;;;5025640;28;20054;-69
2023/05/03 04:18:34;;;;;;;4.13;3.72;;;3.10;99.90;;;;;;5009923;28;20042;-69
2023/05/03 04:21:00;;;;;;;5.72;3.80;;;3.10;99.90;;;;;;5010970;28;20673;-70
2023/05/03 04:23:25;;;;;;;5.70;3.95;;;3.10;99.90;;;;;;5008559;28;21564;-69
2023/05/03 04:25:51;;;;;;;6.97;3.63;;;3.10;99.90;;;;;;5022842;28;20498;-70
2023/05/03 04:28:17;;;;;;;6.63;4.38;;;3.10;99.90;;;;;;5010424;28;20080;-69
2023/05/03 04:30:46;;;;;;;7.50;3.63;;;3.20;99.90;;;;;;5025101;28;20449;-69
2023/05/03 04:33:12;;;;;;;8.15;4.00;;;3.10;99.90;;;;;;5009175;28;20108;-69
2023/05/03 04:35:39;;;;;;;7.90;4.20;;;3.10;99.90;;;;;;5017845;28;20049;-69
2023/05/03 04:38:04;;;;;;;7.40;3.42;;;3.10;99.90;;;;;;5009435;28;20038;-69
2023/05/03 04:40:30;;;;;;;10.60;3.97;;;3.10;99.90;;;;;;5010175;28;20105;-69
2023/05/03 04:42:56;;;;;;;6.35;3.78;;;3.20;99.90;;;;;;5025092;28;20258;-70
2023/05/03 04:45:22;;;;;;;6.95;4.22;;;3.20;99.90;;;;;;5008910;28;20038;-69
2023/05/03 04:47:48;;;;;;;9.30;4.65;;;3.10;99.90;;;;;;5024283;28;20129;-69
2023/05/03 04:50:14;;;;;;;6.80;4.50;;;3.20;99.90;;;;;;5025233;28;20131;-69
2023/05/03 04:52:40;;;;;;;8.63;4.35;;;3.20;99.90;;;;;;5009469;28;20088;-69
2023/05/03 04:55:06;;;;;;;4.93;4.30;;;3.20;99.90;;;;;;5009854;28;20065;-69
2023/05/03 04:57:33;;;;;;;5.70;3.50;;;3.20;99.90;;;;;;5009849;28;20041;-69
2023/05/03 04:59:58;;;;;;;8.30;4.15;;;3.20;99.90;;;;;;5024690;28;20034;-69
2023/05/03 05:02:25;;;;;;;6.28;3.90;;;3.40;99.90;;;;;;5024312;28;20383;-69
2023/05/03 05:04:54;;;;;;;4.70;4.20;;;3.40;99.90;;;;;;5008529;28;20050;-69
2023/05/03 05:07:20;;;;;;;6.15;4.05;;;3.40;99.90;;;;;;5003111;28;20196;-69
2023/05/03 05:09:46;;;;;;;7.50;4.53;;;3.40;99.90;;;;;;5008927;28;20525;-69
2023/05/03 05:12:12;;;;;;;7.63;4.65;;;3.60;99.90;;;;;;5008943;28;20077;-67
2023/05/03 05:14:37;;;;;;;6.80;4.55;;;3.60;99.90;;;;;;5010123;28;20076;-68
2023/05/03 05:17:03;;;;;;;7.72;4.95;;;3.70;99.90;;;;;;5006861;28;20042;-68
2023/05/03 05:19:28;;;;;;;7.60;4.78;;;3.80;99.90;;;;;;5024646;28;20042;-68
2023/05/03 05:21:55;;;;;;;6.40;3.72;;;3.90;99.90;;;;;;5023954;28;20048;-68
2023/05/03 05:24:21;;;;;;;9.40;4.35;;;4.10;99.90;;;;;;5024644;28;20066;-68
2023/05/03 05:26:47;;;;;;;7.72;4.07;;;4.20;99.90;;;;;;5009218;28;20057;-68
2023/05/03 05:29:13;;;;;;;6.88;4.03;;;4.30;99.90;;;;;;5022996;28;20131;-69
2023/05/03 05:31:39;;;;;;;8.73;4.40;;;4.40;99.90;;;;;;5022964;28;20085;-69
2023/05/03 05:34:05;;;;;;;7.15;4.63;;;4.50;99.90;;;;;;5008596;28;20057;-68
2023/05/03 05:36:31;;;;;;;10.45;4.25;;;4.60;99.90;;;;;;5008592;28;20121;-69
2023/05/03 05:38:56;;;;;;;9.25;3.97;;;4.70;99.90;;;;;;5024975;28;20042;-69
2023/05/03 05:41:22;;;;;;;8.80;4.47;;;4.70;99.90;;;;;;5007813;28;20045;-68
2023/05/03 05:43:48;;;;;;;6.82;4.07;;;4.90;99.90;;;;;;5024772;28;20044;-68
2023/05/03 05:46:14;;;;;;;8.90;4.10;;;5.00;99.90;;;;;;5022945;28;20057;-68
2023/05/03 05:48:40;;;;;;;12.00;4.22;;;5.10;99.90;;;;;;5024254;28;20129;-69
2023/05/03 05:51:06;;;;;;;11.80;4.82;;;5.20;99.90;;;;;;5021553;28;20048;-68
2023/05/03 05:53:32;;;;;;;7.20;4.40;;;5.30;99.90;;;;;;5013687;28;20124;-69
2023/05/03 05:55:57;;;;;;;8.52;4.32;;;5.40;99.90;;;;;;5027939;28;20042;-68
2023/05/03 05:58:23;;;;;;;9.80;4.57;;;5.50;99.90;;;;;;5008994;28;20092;-69
2023/05/03 06:00:49;;;;;;;9.50;4.45;;;5.70;99.90;;;;;;5026500;28;20042;-69
2023/05/03 06:03:15;;;;;;;11.30;4.47;;;5.80;99.90;;;;;;4994207;28;20046;-69
2023/05/03 06:05:41;;;;;;;15.07;4.47;;;6.00;99.90;;;;;;5012581;28;20121;-69
2023/05/03 06:08:07;;;;;;;9.10;4.20;;;6.20;99.90;;;;;;5012227;28;20049;-69
2023/05/03 06:10:33;;;;;;;6.50;3.45;;;6.30;99.90;;;;;;5025420;28;20113;-69
2023/05/03 06:12:59;;;;;;;6.47;3.40;;;6.50;99.90;;;;;;5009441;28;20034;-69
2023/05/03 06:15:25;;;;;;;6.50;3.30;;;6.60;99.90;;;;;;5013741;28;20042;-69
2023/05/03 06:17:51;;;;;;;5.63;2.97;;;6.80;99.90;;;;;;5023544;28;20038;-68
2023/05/03 06:20:17;;;;;;;5.70;2.50;;;6.90;99.90;;;;;;5023766;28;20114;-68
2023/05/03 06:22:43;;;;;;;6.03;2.78;;;7.10;99.90;;;;;;5007293;28;20038;-68
2023/05/03 06:25:09;;;;;;;6.05;2.05;;;7.30;99.90;;;;;;5027851;28;20072;-68
2023/05/03 06:27:37;;;;;;;5.35;2.40;;;7.50;99.90;;;;;;5011602;28;20054;-68
2023/05/03 06:30:03;;;;;;;3.25;1.98;;;7.70;99.90;;;;;;5028511;28;20422;-68
2023/05/03 06:32:29;;;;;;;5.00;1.92;;;7.90;99.90;;;;;;5023603;28;20033;-69
2023/05/03 06:34:55;;;;;;;3.63;1.88;;;8.00;99.90;;;;;;5011932;28;20050;-69
2023/05/03 06:37:21;;;;;;;3.22;2.05;;;8.10;99.90;;;;;;5020763;28;20042;-69
2023/05/03 06:39:49;;;;;;;3.63;1.92;;;8.20;99.90;;;;;;5023927;28;20045;-68
2023/05/03 06:42:15;;;;;;;5.05;1.40;;;8.40;99.90;;;;;;5024440;28;20517;-69
2023/05/03 06:44:41;;;;;;;3.63;1.00;;;8.50;99.90;;;;;;5011580;28;20038;-69
2023/05/03 06:47:07;;;;;;;5.85;1.27;;;8.60;99.90;;;;;;5010024;28;20038;-69
2023/05/03 06:49:33;;;;;;;3.38;1.23;;;8.80;99.90;;;;;;5011921;28;20049;-69
2023/05/03 06:51:59;;;;;;;3.22;1.17;;;8.90;99.90;;;;;;5006150;28;20108;-69
2023/05/03 06:54:24;;;;;;;3.65;1.00;;;8.90;99.90;;;;;;5027318;28;20441;-69
2023/05/03 06:56:50;;;;;;;3.20;0.70;;;9.10;99.90;;;;;;5026558;28;20418;-69
2023/05/03 06:59:16;;;;;;;2.95;0.75;;;9.10;99.90;;;;;;5010814;28;20488;-69
2023/05/03 07:01:42;;;;;;;5.03;0.75;;;9.20;99.90;;;;;;5007901;28;20042;-69
2023/05/03 07:04:08;;;;;;;3.40;0.98;;;9.30;99.90;;;;;;5009416;28;20073;-69
2023/05/03 07:06:33;;;;;;;2.90;0.73;;;9.40;99.90;;;;;;5007506;28;20596;-69
2023/05/03 07:08:59;;;;;;;3.40;0.68;;;9.60;99.90;;;;;;5010656;28;20598;-69
2023/05/03 07:11:25;;;;;;;2.60;1.13;;;9.70;99.90;;;;;;5010855;28;20067;-69
2023/05/03 07:13:54;;;;;;;3.05;0.73;;;9.90;99.90;;;;;;5010411;28;20042;-70
2023/05/03 07:16:20;;;;;;;5.68;0.60;;;10.00;99.90;;;;;;5021822;28;20092;-70
2023/05/03 07:18:47;;;;;;;3.38;0.63;;;10.10;99.90;;;;;;5007976;28;20446;-70
2023/05/03 07:21:13;;;;;;;3.67;0.93;;;10.30;99.90;;;;;;5025511;28;20053;-70
2023/05/03 07:23:39;;;;;;;3.53;0.70;;;10.50;99.90;;;;;;5010989;28;20041;-70
2023/05/03 07:26:05;;;;;;;2.25;0.50;;;10.80;99.90;;;;;;5023814;28;20502;-70
2023/05/03 07:28:31;;;;;;;3.05;0.30;;;10.80;99.90;;;;;;5009056;28;20072;-70
2023/05/03 07:30:58;;;;;;;4.18;0.57;;;10.60;99.90;;;;;;5021998;28;20042;-70
2023/05/03 07:33:24;;;;;;;4.53;0.40;;;10.40;99.90;;;;;;5006119;28;20104;-70
2023/05/03 07:35:50;;;;;;;4.82;0.40;;;10.20;99.90;;;;;;5022010;28;20042;-70
2023/05/03 07:38:16;;;;;;;4.18;0.47;;;10.10;99.90;;;;;;5010365;28;20030;-69
2023/05/03 07:40:42;;;;;;;3.00;0.50;;;10.10;99.90;;;;;;5009578;28;20481;-70
2023/05/03 07:43:11;;;;;;;3.13;0.40;;;10.60;99.90;;;;;;5025176;28;20069;-70
2023/05/03 07:45:37;;;;;;;3.10;0.40;;;11.10;99.90;;;;;;5009239;28;20046;-70
2023/05/03 07:48:04;;;;;;;2.63;0.43;;;11.30;99.90;;;;;;5007413;28;20042;-70
2023/05/03 07:50:30;;;;;;;2.33;0.35;;;11.10;99.90;;;;;;5009962;28;20057;-69
2023/05/03 07:52:56;;;;;;;2.30;0.70;;;11.00;99.90;;;;;;5024934;28;20046;-69
2023/05/03 07:55:22;;;;;;;2.53;0.88;;;11.00;99.90;;;;;;5026190;28;20045;-70
2023/05/03 07:57:49;;;;;;;2.78;0.50;;;10.90;99.90;;;;;;5022031;28;20042;-70
2023/05/03 08:00:16;;;;;;;2.05;0.40;;;10.80;99.90;;;;;;5009946;28;20056;-69
2023/05/03 08:02:42;;;;;;;2.80;0.60;;;10.70;99.90;;;;;;5023191;28;20073;-69
2023/05/03 08:05:10;;;;;;;4.53;0.70;;;10.60;99.90;;;;;;5010470;28;20123;-70
2023/05/03 08:07:35;;;;;;;1.02;0.40;;;10.60;99.90;;;;;;5005584;28;20188;-69
2023/05/03 08:10:01;;;;;;;1.58;0.40;;;10.80;99.90;;;;;;5010309;28;20094;-70
2023/05/03 08:12:27;;;;;;;6.15;0.68;;;11.00;99.90;;;;;;5022887;28;20037;-70
2023/05/03 08:14:54;;;;;;;3.00;0.70;;;10.90;99.90;;;;;;5025811;28;20191;-70
2023/05/03 08:17:22;;;;;;;4.72;0.70;;;11.00;99.90;;;;;;5006521;28;20387;-70
2023/05/03 08:19:51;;;;;;;2.78;0.52;;;11.10;99.90;;;;;;5010017;28;20069;-70
2023/05/03 08:22:17;;;;;;;2.97;0.70;;;11.10;99.90;;;;;;5011164;28;20073;-70
2023/05/03 08:24:43;;;;;;;2.38;0.45;;;11.00;99.90;;;;;;5009463;28;20049;-70
2023/05/03 08:27:09;;;;;;;3.38;0.47;;;10.90;99.90;;;;;;5007587;28;20057;-71
2023/05/03 08:29:38;;;;;;;3.70;0.50;;;10.90;99.90;;;;;;5008779;28;20041;-71
2023/05/03 08:32:04;;;;;;;3.13;0.77;;;11.60;99.90;;;;;;5007210;28;20125;-71
2023/05/03 08:34:30;;;;;;;3.33;0.40;;;12.90;99.90;;;;;;5006650;28;20406;-71
2023/05/03 08:36:56;;;;;;;3.25;0.68;;;13.80;99.90;;;;;;5008912;28;20077;-71
2023/05/03 08:39:26;;;;;;;2.55;0.50;;;14.50;99.80;;;;;;5007305;28;20116;-71
2023/05/03 08:41:53;;;;;;;3.78;0.50;;;15.30;99.70;;;;;;5006956;28;20041;-71
2023/05/03 08:44:24;;;;;;;4.20;2.25;;;15.70;97.70;;;;;;5006177;28;20116;-70
2023/05/03 08:46:50;;;;;;;4.05;0.73;;;15.90;94.20;;;;;;5007678;28;20088;-70
2023/05/03 08:49:17;;;;;;;1.88;0.50;;;16.20;93.80;;;;;;5008888;28;20038;-70
2023/05/03 08:51:48;;;;;;;2.90;0.63;;;16.40;93.30;;;;;;5025256;28;20081;-71
2023/05/03 08:54:15;;;;;;;2.88;0.60;;;15.60;88.40;;;;;;5008547;28;20512;-70
2023/05/03 08:56:46;;;;;;;5.35;0.60;;;15.50;91.10;;;;;;5009268;28;20125;-71
2023/05/03 08:59:12;;;;;;;4.03;0.75;;;15.60;90.40;;;;;;5008864;28;20116;-71
2023/05/03 09:01:39;;;;;;;3.15;0.50;;;16.20;89.30;;;;;;5023245;28;20045;-71
2023/05/03 09:04:06;;;;;;;2.72;0.60;;;16.60;88.50;;;;;;5008982;28;20054;-71
2023/05/03 09:06:33;;;;;;;3.03;0.57;;;16.80;84.30;;;;;;5023500;28;20045;-71
2023/05/03 09:08:59;;;;;;;2.55;0.50;;;16.10;79.00;;;;;;5007134;28;20048;-71
2023/05/03 09:11:28;;;;;;;3.33;0.40;;;15.60;82.40;;;;;;5009680;28;20076;-71
2023/05/03 09:14:11;;;;;;;2.22;0.40;;;15.20;81.60;;;;;;5008963;28;20092;-71
2023/05/03 09:16:38;;;;;;;3.28;0.40;;;14.70;80.10;;;;;;5009901;28;20076;-71
2023/05/03 09:19:08;;;;;;;2.33;0.55;;;14.60;86.00;;;;;;5007729;28;20074;-71
2023/05/03 09:21:35;;;;;;;2.28;0.60;;;15.20;85.20;;;;;;5009470;28;20030;-71
2023/05/03 09:24:02;;;;;;;2.67;0.60;;;15.50;83.30;;;;;;5008824;28;20490;-71
2023/05/03 09:26:29;;;;;;;2.20;0.60;;;16.20;85.80;;;;;;5001122;28;20116;-71
2023/05/03 09:28:57;;;;;;;4.07;0.60;;;15.90;81.10;;;;;;5006646;28;20061;-71
2023/05/03 09:31:23;;;;;;;2.67;0.40;;;15.10;77.60;;;;;;5026771;28;20042;-71
2023/05/03 09:33:49;;;;;;;2.60;0.60;;;14.80;82.40;;;;;;4985651;28;20053;-72
2023/05/03 09:36:14;;;;;;;4.63;0.63;;;15.10;82.60;;;;;;5011448;28;20045;-72
2023/05/03 09:38:40;;;;;;;1.90;0.60;;;15.40;81.70;;;;;;5024556;28;20435;-72
2023/05/03 09:41:06;;;;;;;2.65;0.40;;;15.80;81.00;;;;;;5028413;28;20049;-72
2023/05/03 09:43:34;;;;;;;2.80;0.50;;;15.80;79.50;;;;;;5007991;28;20033;-72
2023/05/03 09:46:11;;;;;;;2.65;0.63;;;15.70;78.50;;;;;;4994753;28;20148;-72
2023/05/03 09:48:38;;;;;;;2.03;0.60;;;15.80;78.80;;;;;;5008063;28;20379;-72
2023/05/03 09:51:05;;;;;;;3.35;0.70;;;15.50;78.80;;;;;;5012658;28;20257;-72
2023/05/03 09:53:32;;;;;;;2.28;0.50;;;15.40;80.00;;;;;;5024556;28;20045;-72
2023/05/03 09:56:03;;;;;;;2.88;0.50;;;15.20;78.70;;;;;;5010764;28;20042;-72
2023/05/03 09:58:33;;;;;;;2.25;0.40;;;14.70;77.60;;;;;;5021484;28;20042;-71
2023/05/03 10:00:59;;;;;;;1.60;0.40;;;14.20;77.90;;;;;;5018827;28;20049;-71
2023/05/03 10:03:46;;;;;;;3.35;0.70;;;13.80;79.50;;;;;;5023546;28;20053;-71
2023/05/03 10:06:28;;;;;;;1.65;0.60;;;14.00;81.10;;;;;;5007100;28;20050;-72
2023/05/03 10:09:13;;;;;;;4.70;0.60;;;14.60;79.50;;;;;;5019964;28;20052;-71
2023/05/03 10:11:42;;;;;;;;;;;14.90;78.40;;;;;;5025111;28;20050;-72
2023/05/03 10:14:08;;;;;;;1.65;0.50;;;15.20;78.10;;;;;;5005626;28;19926;-72
2023/05/03 10:16:39;;;;;;;2.20;0.35;;;15.40;78.10;;;;;;5007849;28;20101;-72
2023/05/03 10:19:33;;;;;;;1.90;0.60;;;15.90;78.40;;;;;;5004548;28;20038;-72
2023/05/03 10:22:10;;;;;;;2.88;0.57;;;16.30;78.80;;;;;;5009765;28;20037;-72
2023/05/03 10:24:55;;;;;;;6.07;0.60;;;16.00;75.00;;;;;;5021021;28;20048;-72
2023/05/03 10:27:21;;;;;;;2.65;0.65;;;15.60;72.20;;;;;;5005923;28;20109;-72
2023/05/03 10:29:49;;;;;;;3.92;0.80;;;15.10;76.30;;;;;;5008985;28;20276;-72
2023/05/03 10:32:35;;;;;;;2.78;0.85;;;14.90;75.00;;;;;;5024734;28;20041;-72
2023/05/03 10:35:02;;;;;;;2.13;0.60;;;14.90;73.80;;;;;;5007632;28;20066;-72
2023/05/03 10:37:29;;;;;;;3.15;0.75;;;14.80;76.00;;;;;;5007205;28;20490;-72
2023/05/03 10:39:55;;;;;;;3.88;0.80;;;15.00;78.90;;;;;;5008308;28;20422;-72
2023/05/03 10:42:27;;;;;;;2.85;0.73;;;15.40;77.80;;;;;;5021495;28;20067;-73
2023/05/03 10:44:53;;;;;;;3.97;0.93;;;15.60;78.30;;;;;;5005922;28;20050;-71
2023/05/03 10:47:25;;;;;;;2.30;0.65;;;15.90;78.00;;;;;;5019928;28;20053;-71
2023/05/03 10:50:15;;;;;;;1.88;0.52;;;16.00;75.40;;;;;;5008958;28;20050;-71
2023/05/03 10:52:41;;;;;;;3.15;0.77;;;16.30;73.70;;;;;;5005582;28;20485;-71
2023/05/03 10:55:11;;;;;;;2.03;0.60;;;16.40;72.10;;;;;;5008194;28;20087;-71
2023/05/03 10:57:42;;;;;;;3.92;0.70;;;16.70;72.90;;;;;;5008995;28;20112;-71
2023/05/03 11:00:22;;;;;;;3.13;0.65;;;16.90;72.50;;;;;;5007015;28;20049;-71
2023/05/03 11:03:10;;;;;;;4.43;1.00;;;17.20;67.60;;;;;;5006060;28;20042;-72
2023/05/03 11:05:37;;;;;;;2.90;0.88;;;17.30;69.00;;;;;;5024394;28;20100;-72
2023/05/03 11:08:19;;;;;;;3.35;0.60;;;17.20;69.40;;;;;;5006643;28;20425;-72
2023/05/03 11:10:47;;;;;;;3.70;0.93;;;17.20;68.90;;;;;;5008136;28;20046;-71
2023/05/03 11:13:14;;;;;;;3.25;0.80;;;17.00;69.70;;;;;;5023275;28;20529;-72
2023/05/03 11:15:40;;;;;;;3.05;0.57;;;17.00;70.50;;;;;;5022425;28;20037;-68
2023/05/03 11:18:07;;;;;;;2.38;0.65;;;17.00;69.80;;;;;;5009120;28;20100;-67
2023/05/03 11:20:33;;;;;;;5.78;1.17;;;17.00;69.10;;;;;;5011294;28;20037;-67
2023/05/03 11:22:58;;;;;;;3.55;0.70;;;17.20;69.20;;;;;;5011131;28;20077;-67
2023/05/03 11:25:25;;;;;;;3.85;1.00;;;17.50;67.40;;;;;;5010486;28;20046;-67
2023/05/03 11:27:51;;;;;;;2.63;0.82;;;17.50;66.40;;;;;;5008165;28;20407;-67
2023/05/03 11:30:17;;;;;;;3.17;0.90;;;17.50;67.20;;;;;;5009200;28;20037;-73
2023/05/03 11:32:43;;;;;;;3.03;0.60;;;17.60;65.20;;;;;;5025615;28;20061;-69
2023/05/03 11:35:11;;;;;;;3.00;0.88;;;17.70;66.20;;;;;;5009911;28;20046;-69
2023/05/03 11:37:37;;;;;;;4.13;0.90;;;17.80;64.60;;;;;;5009927;28;20109;-73
2023/05/03 11:40:03;;;;;;;4.22;1.05;;;17.70;63.50;;;;;;5009860;28;20129;-73
2023/05/03 11:42:29;;;;;;;2.38;0.82;;;17.90;68.10;;;;;;5008783;28;20034;-73
2023/05/03 11:44:55;;;;;;;4.45;0.95;;;18.20;64.20;;;;;;5008381;28;20143;-67
2023/05/03 11:47:21;;;;;;;3.58;0.90;;;18.20;64.10;;;;;;5008281;28;20316;-68
2023/05/03 11:49:55;;;;;;;4.15;0.88;;;17.90;63.80;;;;;;5007714;28;20046;-68
2023/05/03 11:52:25;;;;;;;3.17;1.17;;;17.60;63.80;;;;;;5005873;28;20387;-68
2023/05/03 11:54:51;;;;;;;4.97;0.80;;;17.70;64.00;;;;;;5008122;28;20445;-68
2023/05/03 11:57:17;;;;;;;1.92;0.70;;;17.80;62.60;;;;;;5006543;28;20077;-69
2023/05/03 11:59:43;;;;;;;2.63;0.90;;;17.80;63.50;;;;;;5007919;28;20493;-69
2023/05/03 12:02:12;;;;;;;2.35;0.90;;;18.10;62.60;;;;;;5008834;28;20038;-68
2023/05/03 12:04:42;;;;;;;1.92;0.80;;;18.20;60.90;;;;;;5008231;28;20041;-69
2023/05/03 12:07:12;;;;;;;3.85;0.90;;;18.10;60.90;;;;;;5020474;28;20045;-69
2023/05/03 12:09:38;;;;;;;2.83;0.82;;;18.20;61.00;;;;;;5023085;28;20045;-69
2023/05/03 12:12:04;;;;;;;4.00;1.15;;;18.40;62.00;;;;;;5008934;28;20053;-69
2023/05/03 12:14:59;;;;;;;2.67;0.90;;;18.50;59.30;;;;;;5007388;28;20042;-69
2023/05/03 12:17:38;;;;;;;4.35;1.08;;;18.50;61.00;;;;;;5007533;28;20041;-68
2023/05/03 12:20:18;;;;;;;3.25;1.00;;;18.50;61.10;;;;;;5007948;28;20030;-68
2023/05/03 12:22:48;;;;;;;2.88;0.95;;;18.30;58.80;;;;;;5009458;28;20041;-68
2023/05/03 12:25:14;;;;;;;4.50;1.10;;;18.50;62.30;;;;;;5009779;28;20498;-69
2023/05/03 12:27:40;;;;;;;3.38;1.25;;;18.70;61.50;;;;;;5008703;28;20179;-68
2023/05/03 12:30:09;;;;;;;2.83;0.98;;;18.70;62.40;;;;;;5009940;28;20065;-68
2023/05/03 12:32:37;;;;;;;2.55;1.00;;;18.80;61.00;;;;;;5008895;28;20041;-66
2023/05/03 12:35:10;;;;;;;4.88;1.17;;;18.80;60.40;;;;;;5009395;28;20049;-66
2023/05/03 12:37:36;;;;;;;2.17;0.90;;;18.70;58.40;;;;;;5009525;28;20057;-66
2023/05/03 12:40:05;;;;;;;2.70;1.00;;;18.40;58.90;;;;;;5009542;28;20033;-66
2023/05/03 12:42:31;;;;;;;3.85;1.10;;;18.60;59.60;;;;;;5008176;28;20034;-67
2023/05/03 12:45:00;;;;;;;2.17;0.90;;;18.40;59.30;;;;;;5009199;28;20133;-67
2023/05/03 12:47:26;;;;;;;2.38;0.85;;;18.50;59.40;;;;;;5008029;28;20481;-66
2023/05/03 12:49:53;;;;;;;5.53;1.23;;;18.40;59.60;;;;;;5009643;28;20060;-72
2023/05/03 12:52:20;;;;;;;4.25;0.90;;;18.20;59.60;;;;;;5025388;28;20029;-72
2023/05/03 12:54:46;;;;;;;2.58;0.85;;;18.20;59.10;;;;;;4986006;28;20078;-72
2023/05/03 12:57:13;;;;;;;2.95;1.02;;;18.00;60.40;;;;;;5024647;28;20545;-72